Blowing Snow or Not? | Paperless Cockpit

Blowing Snow or Not?

By Scott Dennstaedt

In a bona fide blizzard you'd expect to see a fair amount of blowing snow, right? Well, take a look at the conditions for these three airports at the height of the nor'easter that recently pummeled New England with a record snowfall.

KEWB 270539Z AUTO 03030G46KT 1/4SM R05/1600V2200FT +SN FZFG SQ VV004 M02/M02 A2958 RMK AO2 PK WND 03046/0538 P0000 T10171022

KTAN 270552Z AUTO 01018G32KT 1/4SM +SN FZFG VV003 M02/M03 A2962 RMK AO2 PK WND 04040/0536 SLP031 

KFMH 270535Z AUTO 03032G52KT 1/4SM SN OVC002 M01/M02 A2955 RMK A02

Strong, gusty winds, moderate to heavy snow and even a squall is reported, but no indication of blowing snow (coded as BLSN). This seems rather odd, but an Automated Surface Observing System (ASOS) is not designed to report blowing snow in the middle of a blizzard. You read that right; it's designed to only report blowing snow once the winter storm has departed such as it was in Worcester, Massachusetts the following morning.

KORH 280947Z AUTO 31020G26KT 2 1/2SM BLSN CLR M14/M18 A2972 
     RMK AO2 PK WND 29028/0913 VIS 3/4V5 T11391178

Before an ASOS can report blowing snow (even when blowing snow conditions are detected by the precipitation sensors), all of the following conditions must also be met –

  • Visibility must be less than 7 statute miles
  • Ambient temperature must be less than or equal to 14 degrees Fahrenheit
  • Sky cover must be less than overcast or the ceiling height must be greater than 10,000 feet
  • Wind speed must be greater than 22 knots.
  • From the surface observations during the blizzard, only two of the four conditions were met. As a result, BLSN wasn't reported in the automated observation. Keep in mind, at airports or stations with a human observer, the observation may be augmented to include BLSN like it was here for Providence, Rhode Island.

    KPVD 270551Z 01025G34KT 1/2SM R05/3000VP6000FT SN BLSN FZFG VV012 M07/M09 A2965 RMK AO2 PK WND 01038/0538 SLP039

    Read more here:: Blowing Snow or Not?


    Leave a Reply

  • Previous Posts